sensor_id;sensor_type;location;lat;lon;timestamp;P1;durP1;ratioP1;P2;durP2;ratioP2
46439;SDS011;32138;50.966;6.968;2022-12-24T00:00:11;27.83;;;6.88;;
46439;SDS011;32138;50.966;6.968;2022-12-24T00:01:13;22.80;;;7.18;;
46439;SDS011;32138;50.966;6.968;2022-12-24T00:02:14;26.30;;;5.90;;
46439;SDS011;32138;50.966;6.968;2022-12-24T00:03:14;31.27;;;6.63;;
46439;SDS011;32138;50.966;6.968;2022-12-24T00:04:15;26.05;;;7.20;;
46439;SDS011;32138;50.966;6.968;2022-12-24T00:05:19;21.23;;;6.47;;
46439;SDS011;32138;50.966;6.968;2022-12-24T00:06:21;27.48;;;6.78;;
46439;SDS011;32138;50.966;6.968;2022-12-24T00:07:23;22.42;;;6.28;;
46439;SDS011;32138;50.966;6.968;2022-12-24T00:08:23;29.52;;;7.20;;
46439;SDS011;32138;50.966;6.968;2022-12-24T00:09:25;28.30;;;6.13;;
46439;SDS011;32138;50.966;6.968;2022-12-24T00:10:25;22.85;;;6.22;;
46439;SDS011;32138;50.966;6.968;2022-12-24T00:11:26;30.23;;;7.88;;
46439;SDS011;32138;50.966;6.968;2022-12-24T00:12:27;24.02;;;6.00;;
46439;SDS011;32138;50.966;6.968;2022-12-24T00:13:28;30.00;;;7.18;;
46439;SDS011;32138;50.966;6.968;2022-12-24T00:14:28;26.90;;;6.88;;
46439;SDS011;32138;50.966;6.968;2022-12-24T00:15:29;32.15;;;7.32;;
46439;SDS011;32138;50.966;6.968;2022-12-24T00:16:30;28.60;;;7.22;;
46439;SDS011;32138;50.966;6.968;2022-12-24T00:17:33;28.38;;;7.82;;
46439;SDS011;32138;50.966;6.968;2022-12-24T00:18:34;22.77;;;6.03;;
46439;SDS011;32138;50.966;6.968;2022-12-24T00:19:35;31.95;;;6.43;;
46439;SDS011;32138;50.966;6.968;2022-12-24T00:20:35;41.75;;;7.57;;
46439;SDS011;32138;50.966;6.968;2022-12-24T00:21:36;32.00;;;8.05;;
46439;SDS011;32138;50.966;6.968;2022-12-24T00:22:37;18.85;;;5.88;;
46439;SDS011;32138;50.966;6.968;2022-12-24T00:23:38;30.10;;;6.72;;
46439;SDS011;32138;50.966;6.968;2022-12-24T00:24:39;27.70;;;7.28;;
46439;SDS011;32138;50.966;6.968;2022-12-24T00:25:40;21.77;;;6.20;;
46439;SDS011;32138;50.966;6.968;2022-12-24T00:26:41;26.08;;;5.40;;
46439;SDS011;32138;50.966;6.968;2022-12-24T00:27:44;22.67;;;6.00;;
46439;SDS011;32138;50.966;6.968;2022-12-24T00:28:45;28.80;;;6.28;;
46439;SDS011;32138;50.966;6.968;2022-12-24T00:29:46;30.98;;;6.65;;
46439;SDS011;32138;50.966;6.968;2022-12-24T00:30:46;24.88;;;5.75;;
46439;SDS011;32138;50.966;6.968;2022-12-24T00:31:50;24.08;;;6.35;;
46439;SDS011;32138;50.966;6.968;2022-12-24T00:32:51;35.22;;;8.20;;
46439;SDS011;32138;50.966;6.968;2022-12-24T00:33:52;26.92;;;5.90;;
46439;SDS011;32138;50.966;6.968;2022-12-24T00:34:53;28.67;;;6.38;;
46439;SDS011;32138;50.966;6.968;2022-12-24T00:35:54;25.55;;;6.65;;
46439;SDS011;32138;50.966;6.968;2022-12-24T00:36:54;30.88;;;7.43;;
46439;SDS011;32138;50.966;6.968;2022-12-24T00:37:55;24.45;;;6.53;;
46439;SDS011;32138;50.966;6.968;2022-12-24T00:38:56;24.73;;;5.90;;
46439;SDS011;32138;50.966;6.968;2022-12-24T00:39:56;25.20;;;7.15;;
46439;SDS011;32138;50.966;6.968;2022-12-24T00:40:58;24.52;;;6.82;;
46439;SDS011;32138;50.966;6.968;2022-12-24T00:42:00;27.60;;;6.55;;
46439;SDS011;32138;50.966;6.968;2022-12-24T00:43:01;29.35;;;7.55;;
46439;SDS011;32138;50.966;6.968;2022-12-24T00:44:03;25.15;;;6.55;;
46439;SDS011;32138;50.966;6.968;2022-12-24T00:45:09;34.17;;;7.57;;
46439;SDS011;32138;50.966;6.968;2022-12-24T00:46:11;29.50;;;6.95;;
46439;SDS011;32138;50.966;6.968;2022-12-24T00:47:11;24.42;;;5.05;;
46439;SDS011;32138;50.966;6.968;2022-12-24T00:48:15;25.40;;;6.95;;
46439;SDS011;32138;50.966;6.968;2022-12-24T00:49:16;21.35;;;5.43;;
46439;SDS011;32138;50.966;6.968;2022-12-24T00:50:16;31.02;;;7.75;;
46439;SDS011;32138;50.966;6.968;2022-12-24T00:51:17;20.45;;;6.43;;
46439;SDS011;32138;50.966;6.968;2022-12-24T00:52:19;27.08;;;6.88;;
46439;SDS011;32138;50.966;6.968;2022-12-24T00:53:19;30.13;;;7.22;;
46439;SDS011;32138;50.966;6.968;2022-12-24T00:54:23;19.33;;;5.43;;
46439;SDS011;32138;50.966;6.968;2022-12-24T00:55:24;34.42;;;6.75;;
46439;SDS011;32138;50.966;6.968;2022-12-24T00:56:25;25.23;;;5.63;;
46439;SDS011;32138;50.966;6.968;2022-12-24T00:57:25;23.70;;;7.00;;
46439;SDS011;32138;50.966;6.968;2022-12-24T00:58:26;29.80;;;6.25;;
46439;SDS011;32138;50.966;6.968;2022-12-24T00:59:27;24.52;;;7.00;;
46439;SDS011;32138;50.966;6.968;2022-12-24T01:00:28;25.50;;;5.68;;
46439;SDS011;32138;50.966;6.968;2022-12-24T01:01:29;28.05;;;6.55;;
46439;SDS011;32138;50.966;6.968;2022-12-24T01:02:32;26.40;;;6.70;;
46439;SDS011;32138;50.966;6.968;2022-12-24T01:03:33;29.80;;;7.00;;
46439;SDS011;32138;50.966;6.968;2022-12-24T01:04:34;26.33;;;6.85;;
46439;SDS011;32138;50.966;6.968;2022-12-24T01:05:53;25.33;;;6.13;;
46439;SDS011;32138;50.966;6.968;2022-12-24T01:06:54;30.15;;;7.53;;
46439;SDS011;32138;50.966;6.968;2022-12-24T01:07:55;19.90;;;4.72;;
46439;SDS011;32138;50.966;6.968;2022-12-24T01:08:55;24.95;;;5.53;;
46439;SDS011;32138;50.966;6.968;2022-12-24T01:09:58;34.75;;;7.78;;
46439;SDS011;32138;50.966;6.968;2022-12-24T01:10:59;28.92;;;6.50;;
46439;SDS011;32138;50.966;6.968;2022-12-24T01:12:01;26.52;;;5.38;;
46439;SDS011;32138;50.966;6.968;2022-12-24T01:13:02;26.02;;;6.00;;
46439;SDS011;32138;50.966;6.968;2022-12-24T01:14:03;22.33;;;6.05;;
46439;SDS011;32138;50.966;6.968;2022-12-24T01:15:06;22.40;;;6.22;;
46439;SDS011;32138;50.966;6.968;2022-12-24T01:16:15;29.73;;;7.72;;
46439;SDS011;32138;50.966;6.968;2022-12-24T01:17:19;21.77;;;5.82;;
46439;SDS011;32138;50.966;6.968;2022-12-24T01:18:20;26.40;;;6.75;;
46439;SDS011;32138;50.966;6.968;2022-12-24T01:19:21;25.90;;;5.53;;
46439;SDS011;32138;50.966;6.968;2022-12-24T01:20:21;29.80;;;6.82;;
46439;SDS011;32138;50.966;6.968;2022-12-24T01:21:22;24.10;;;6.18;;
46439;SDS011;32138;50.966;6.968;2022-12-24T01:22:23;27.20;;;7.25;;
46439;SDS011;32138;50.966;6.968;2022-12-24T01:23:24;20.27;;;5.72;;
46439;SDS011;32138;50.966;6.968;2022-12-24T01:24:28;25.98;;;5.72;;
46439;SDS011;32138;50.966;6.968;2022-12-24T01:25:29;22.25;;;6.03;;
46439;SDS011;32138;50.966;6.968;2022-12-24T01:26:29;32.72;;;6.93;;
46439;SDS011;32138;50.966;6.968;2022-12-24T01:27:30;30.27;;;7.28;;
46439;SDS011;32138;50.966;6.968;2022-12-24T01:28:32;23.60;;;6.03;;
46439;SDS011;32138;50.966;6.968;2022-12-24T01:29:33;23.02;;;5.30;;
46439;SDS011;32138;50.966;6.968;2022-12-24T01:30:34;28.92;;;6.22;;
46439;SDS011;32138;50.966;6.968;2022-12-24T01:31:34;23.42;;;6.43;;
46439;SDS011;32138;50.966;6.968;2022-12-24T01:32:35;20.48;;;6.20;;
46439;SDS011;32138;50.966;6.968;2022-12-24T01:33:36;25.05;;;5.55;;
46439;SDS011;32138;50.966;6.968;2022-12-24T01:34:37;28.10;;;7.35;;
46439;SDS011;32138;50.966;6.968;2022-12-24T01:35:38;22.80;;;5.78;;
46439;SDS011;32138;50.966;6.968;2022-12-24T01:36:40;22.65;;;5.25;;
46439;SDS011;32138;50.966;6.968;2022-12-24T01:37:41;26.52;;;6.57;;
46439;SDS011;32138;50.966;6.968;2022-12-24T01:38:45;21.50;;;5.70;;
46439;SDS011;32138;50.966;6.968;2022-12-24T01:39:45;29.27;;;6.15;;
46439;SDS011;32138;50.966;6.968;2022-12-24T01:40:46;27.45;;;6.10;;
46439;SDS011;32138;50.966;6.968;2022-12-24T01:42:13;23.02;;;5.57;;
46439;SDS011;32138;50.966;6.968;2022-12-24T01:43:40;28.83;;;6.10;;
46439;SDS011;32138;50.966;6.968;2022-12-24T01:44:41;23.77;;;6.03;;
46439;SDS011;32138;50.966;6.968;2022-12-24T01:45:51;27.08;;;6.22;;
46439;SDS011;32138;50.966;6.968;2022-12-24T01:46:55;25.90;;;5.65;;
46439;SDS011;32138;50.966;6.968;2022-12-24T01:48:36;23.40;;;4.95;;
46439;SDS011;32138;50.966;6.968;2022-12-24T01:50:00;23.30;;;6.00;;
46439;SDS011;32138;50.966;6.968;2022-12-24T01:51:16;21.55;;;5.55;;
46439;SDS011;32138;50.966;6.968;2022-12-24T01:52:39;28.38;;;6.20;;
46439;SDS011;32138;50.966;6.968;2022-12-24T01:53:42;27.25;;;5.53;;
46439;SDS011;32138;50.966;6.968;2022-12-24T01:54:54;20.27;;;5.70;;
46439;SDS011;32138;50.966;6.968;2022-12-24T01:56:08;26.63;;;5.65;;
46439;SDS011;32138;50.966;6.968;2022-12-24T01:57:15;24.92;;;5.90;;
46439;SDS011;32138;50.966;6.968;2022-12-24T01:58:21;21.90;;;6.13;;
46439;SDS011;32138;50.966;6.968;2022-12-24T01:59:23;23.33;;;5.47;;
46439;SDS011;32138;50.966;6.968;2022-12-24T02:00:24;27.17;;;6.38;;
46439;SDS011;32138;50.966;6.968;2022-12-24T02:01:29;26.13;;;5.55;;
46439;SDS011;32138;50.966;6.968;2022-12-24T02:02:29;22.65;;;4.88;;
46439;SDS011;32138;50.966;6.968;2022-12-24T02:03:32;26.63;;;6.32;;
46439;SDS011;32138;50.966;6.968;2022-12-24T02:04:37;23.90;;;6.40;;
46439;SDS011;32138;50.966;6.968;2022-12-24T02:05:53;24.27;;;6.40;;
46439;SDS011;32138;50.966;6.968;2022-12-24T02:07:00;21.90;;;5.97;;
46439;SDS011;32138;50.966;6.968;2022-12-24T02:08:01;18.15;;;5.28;;
46439;SDS011;32138;50.966;6.968;2022-12-24T02:09:04;18.27;;;5.40;;
46439;SDS011;32138;50.966;6.968;2022-12-24T02:10:06;22.55;;;5.95;;
46439;SDS011;32138;50.966;6.968;2022-12-24T02:11:16;25.67;;;6.28;;
46439;SDS011;32138;50.966;6.968;2022-12-24T02:12:20;26.23;;;8.05;;
46439;SDS011;32138;50.966;6.968;2022-12-24T02:13:21;34.38;;;6.95;;
46439;SDS011;32138;50.966;6.968;2022-12-24T02:14:21;23.05;;;5.47;;
46439;SDS011;32138;50.966;6.968;2022-12-24T02:15:25;21.23;;;5.68;;
46439;SDS011;32138;50.966;6.968;2022-12-24T02:18:38;18.65;;;5.28;;
46439;SDS011;32138;50.966;6.968;2022-12-24T02:22:45;22.73;;;5.65;;
46439;SDS011;32138;50.966;6.968;2022-12-24T02:28:42;20.52;;;5.93;;
46439;SDS011;32138;50.966;6.968;2022-12-24T02:30:13;22.77;;;5.20;;
46439;SDS011;32138;50.966;6.968;2022-12-24T02:31:29;26.25;;;6.45;;
46439;SDS011;32138;50.966;6.968;2022-12-24T02:32:48;19.67;;;5.78;;
46439;SDS011;32138;50.966;6.968;2022-12-24T02:37:03;31.70;;;6.95;;
46439;SDS011;32138;50.966;6.968;2022-12-24T02:38:43;31.85;;;6.70;;
46439;SDS011;32138;50.966;6.968;2022-12-24T02:39:58;24.60;;;6.10;;
46439;SDS011;32138;50.966;6.968;2022-12-24T02:41:10;19.95;;;5.50;;
46439;SDS011;32138;50.966;6.968;2022-12-24T02:42:48;31.00;;;6.88;;
46439;SDS011;32138;50.966;6.968;2022-12-24T02:43:54;21.42;;;5.63;;
46439;SDS011;32138;50.966;6.968;2022-12-24T02:44:58;25.92;;;5.75;;
46439;SDS011;32138;50.966;6.968;2022-12-24T02:46:08;27.38;;;6.55;;
46439;SDS011;32138;50.966;6.968;2022-12-24T02:47:14;28.50;;;6.65;;
46439;SDS011;32138;50.966;6.968;2022-12-24T02:48:17;30.65;;;6.68;;
46439;SDS011;32138;50.966;6.968;2022-12-24T02:49:20;27.33;;;6.47;;
46439;SDS011;32138;50.966;6.968;2022-12-24T02:50:21;21.67;;;5.90;;
46439;SDS011;32138;50.966;6.968;2022-12-24T02:51:23;24.55;;;6.28;;
46439;SDS011;32138;50.966;6.968;2022-12-24T02:53:38;23.65;;;6.38;;
46439;SDS011;32138;50.966;6.968;2022-12-24T02:54:40;27.52;;;5.65;;
46439;SDS011;32138;50.966;6.968;2022-12-24T02:57:10;19.98;;;5.50;;
46439;SDS011;32138;50.966;6.968;2022-12-24T03:00:14;26.27;;;5.72;;
46439;SDS011;32138;50.966;6.968;2022-12-24T03:01:23;28.33;;;5.82;;
46439;SDS011;32138;50.966;6.968;2022-12-24T03:05:18;29.90;;;6.43;;
46439;SDS011;32138;50.966;6.968;2022-12-24T03:09:24;26.35;;;6.35;;
46439;SDS011;32138;50.966;6.968;2022-12-24T03:11:56;18.45;;;5.72;;
46439;SDS011;32138;50.966;6.968;2022-12-24T03:13:05;24.50;;;6.17;;
46439;SDS011;32138;50.966;6.968;2022-12-24T03:14:15;26.70;;;5.95;;
46439;SDS011;32138;50.966;6.968;2022-12-24T03:15:18;18.55;;;5.20;;
46439;SDS011;32138;50.966;6.968;2022-12-24T03:16:24;21.88;;;5.55;;
46439;SDS011;32138;50.966;6.968;2022-12-24T03:17:27;19.13;;;5.57;;
46439;SDS011;32138;50.966;6.968;2022-12-24T03:18:28;20.83;;;5.57;;
46439;SDS011;32138;50.966;6.968;2022-12-24T03:19:30;25.77;;;5.32;;
46439;SDS011;32138;50.966;6.968;2022-12-24T03:20:39;19.33;;;5.60;;
46439;SDS011;32138;50.966;6.968;2022-12-24T03:21:45;21.50;;;4.72;;
46439;SDS011;32138;50.966;6.968;2022-12-24T03:22:47;20.92;;;5.32;;
46439;SDS011;32138;50.966;6.968;2022-12-24T03:23:51;23.27;;;5.18;;
46439;SDS011;32138;50.966;6.968;2022-12-24T03:24:51;18.30;;;5.32;;
46439;SDS011;32138;50.966;6.968;2022-12-24T03:25:52;21.65;;;5.03;;
46439;SDS011;32138;50.966;6.968;2022-12-24T03:26:53;19.38;;;5.07;;
46439;SDS011;32138;50.966;6.968;2022-12-24T03:27:55;23.75;;;5.45;;
46439;SDS011;32138;50.966;6.968;2022-12-24T03:29:03;14.52;;;4.00;;
46439;SDS011;32138;50.966;6.968;2022-12-24T03:30:09;21.15;;;5.15;;
46439;SDS011;32138;50.966;6.968;2022-12-24T03:31:17;16.98;;;4.53;;
46439;SDS011;32138;50.966;6.968;2022-12-24T03:32:27;17.88;;;4.47;;
46439;SDS011;32138;50.966;6.968;2022-12-24T03:33:30;15.80;;;3.90;;
46439;SDS011;32138;50.966;6.968;2022-12-24T03:34:31;11.90;;;3.85;;
46439;SDS011;32138;50.966;6.968;2022-12-24T03:35:32;12.60;;;3.58;;
46439;SDS011;32138;50.966;6.968;2022-12-24T03:36:32;16.35;;;4.38;;
46439;SDS011;32138;50.966;6.968;2022-12-24T03:37:33;13.25;;;3.25;;
46439;SDS011;32138;50.966;6.968;2022-12-24T03:38:34;14.05;;;4.10;;
46439;SDS011;32138;50.966;6.968;2022-12-24T03:39:35;16.77;;;3.72;;
46439;SDS011;32138;50.966;6.968;2022-12-24T03:40:38;12.50;;;3.20;;
46439;SDS011;32138;50.966;6.968;2022-12-24T03:41:39;10.75;;;3.10;;
46439;SDS011;32138;50.966;6.968;2022-12-24T03:42:40;10.77;;;3.50;;
46439;SDS011;32138;50.966;6.968;2022-12-24T03:43:41;13.10;;;3.25;;
46439;SDS011;32138;50.966;6.968;2022-12-24T03:44:41;11.95;;;3.92;;
46439;SDS011;32138;50.966;6.968;2022-12-24T03:45:42;13.00;;;3.22;;
46439;SDS011;32138;50.966;6.968;2022-12-24T03:46:46;11.75;;;3.42;;
46439;SDS011;32138;50.966;6.968;2022-12-24T03:47:47;13.88;;;2.88;;
46439;SDS011;32138;50.966;6.968;2022-12-24T03:48:47;14.07;;;3.42;;
46439;SDS011;32138;50.966;6.968;2022-12-24T03:49:48;10.73;;;3.20;;
46439;SDS011;32138;50.966;6.968;2022-12-24T03:50:49;11.18;;;3.03;;
46439;SDS011;32138;50.966;6.968;2022-12-24T03:51:49;14.70;;;4.22;;
46439;SDS011;32138;50.966;6.968;2022-12-24T03:52:50;9.30;;;3.50;;
46439;SDS011;32138;50.966;6.968;2022-12-24T03:53:51;13.80;;;3.30;;
46439;SDS011;32138;50.966;6.968;2022-12-24T03:54:56;12.73;;;2.65;;
46439;SDS011;32138;50.966;6.968;2022-12-24T03:55:57;8.90;;;2.55;;
46439;SDS011;32138;50.966;6.968;2022-12-24T03:56:58;14.18;;;3.25;;
46439;SDS011;32138;50.966;6.968;2022-12-24T03:57:58;13.80;;;3.42;;
46439;SDS011;32138;50.966;6.968;2022-12-24T03:59:01;10.82;;;4.75;;
46439;SDS011;32138;50.966;6.968;2022-12-24T04:00:03;13.32;;;4.05;;
46439;SDS011;32138;50.966;6.968;2022-12-24T04:01:05;13.23;;;3.33;;
46439;SDS011;32138;50.966;6.968;2022-12-24T04:02:09;11.85;;;3.05;;
46439;SDS011;32138;50.966;6.968;2022-12-24T04:03:10;7.75;;;2.30;;
46439;SDS011;32138;50.966;6.968;2022-12-24T04:04:11;8.00;;;2.53;;
46439;SDS011;32138;50.966;6.968;2022-12-24T04:05:16;6.75;;;2.60;;
46439;SDS011;32138;50.966;6.968;2022-12-24T04:06:18;7.95;;;2.80;;
46439;SDS011;32138;50.966;6.968;2022-12-24T04:07:19;9.95;;;3.05;;
46439;SDS011;32138;50.966;6.968;2022-12-24T04:08:23;9.88;;;2.53;;
46439;SDS011;32138;50.966;6.968;2022-12-24T04:09:24;14.30;;;3.13;;
46439;SDS011;32138;50.966;6.968;2022-12-24T04:10:24;9.57;;;2.50;;
46439;SDS011;32138;50.966;6.968;2022-12-24T04:11:25;9.63;;;2.72;;
46439;SDS011;32138;50.966;6.968;2022-12-24T04:12:26;11.02;;;2.60;;
46439;SDS011;32138;50.966;6.968;2022-12-24T04:13:27;9.05;;;2.28;;
46439;SDS011;32138;50.966;6.968;2022-12-24T04:14:31;6.78;;;2.10;;
46439;SDS011;32138;50.966;6.968;2022-12-24T04:15:31;14.45;;;3.22;;
46439;SDS011;32138;50.966;6.968;2022-12-24T04:16:32;8.25;;;2.53;;
46439;SDS011;32138;50.966;6.968;2022-12-24T04:17:33;9.85;;;2.42;;
46439;SDS011;32138;50.966;6.968;2022-12-24T04:18:34;7.93;;;2.10;;
46439;SDS011;32138;50.966;6.968;2022-12-24T04:19:38;8.32;;;2.38;;
46439;SDS011;32138;50.966;6.968;2022-12-24T04:20:39;8.23;;;2.20;;
46439;SDS011;32138;50.966;6.968;2022-12-24T04:21:40;8.10;;;1.98;;
46439;SDS011;32138;50.966;6.968;2022-12-24T04:22:40;9.00;;;2.10;;
46439;SDS011;32138;50.966;6.968;2022-12-24T04:23:41;8.85;;;2.45;;
46439;SDS011;32138;50.966;6.968;2022-12-24T04:24:43;9.82;;;2.38;;
46439;SDS011;32138;50.966;6.968;2022-12-24T04:25:46;8.35;;;3.28;;
46439;SDS011;32138;50.966;6.968;2022-12-24T04:26:47;5.95;;;1.90;;
46439;SDS011;32138;50.966;6.968;2022-12-24T04:27:48;9.43;;;2.55;;
46439;SDS011;32138;50.966;6.968;2022-12-24T04:28:49;6.70;;;1.75;;
46439;SDS011;32138;50.966;6.968;2022-12-24T04:29:50;9.93;;;2.00;;
46439;SDS011;32138;50.966;6.968;2022-12-24T04:30:50;10.23;;;2.53;;
46439;SDS011;32138;50.966;6.968;2022-12-24T04:31:51;9.52;;;1.90;;
46439;SDS011;32138;50.966;6.968;2022-12-24T04:32:54;7.75;;;2.28;;
46439;SDS011;32138;50.966;6.968;2022-12-24T04:33:55;8.90;;;2.10;;
46439;SDS011;32138;50.966;6.968;2022-12-24T04:34:56;7.13;;;2.15;;
46439;SDS011;32138;50.966;6.968;2022-12-24T04:35:57;8.55;;;1.95;;
46439;SDS011;32138;50.966;6.968;2022-12-24T04:37:00;7.10;;;1.75;;
46439;SDS011;32138;50.966;6.968;2022-12-24T04:38:01;9.27;;;2.55;;
46439;SDS011;32138;50.966;6.968;2022-12-24T04:39:02;9.50;;;2.17;;
46439;SDS011;32138;50.966;6.968;2022-12-24T04:40:03;7.95;;;1.60;;
46439;SDS011;32138;50.966;6.968;2022-12-24T04:41:05;7.15;;;2.15;;
46439;SDS011;32138;50.966;6.968;2022-12-24T04:42:11;10.85;;;2.55;;
46439;SDS011;32138;50.966;6.968;2022-12-24T04:43:12;6.28;;;1.92;;
46439;SDS011;32138;50.966;6.968;2022-12-24T04:44:13;7.32;;;1.83;;
46439;SDS011;32138;50.966;6.968;2022-12-24T04:45:14;7.80;;;2.63;;
46439;SDS011;32138;50.966;6.968;2022-12-24T04:46:16;11.43;;;2.38;;
46439;SDS011;32138;50.966;6.968;2022-12-24T04:47:26;8.85;;;2.58;;
46439;SDS011;32138;50.966;6.968;2022-12-24T04:48:26;8.55;;;2.40;;
46439;SDS011;32138;50.966;6.968;2022-12-24T04:49:27;8.77;;;2.40;;
46439;SDS011;32138;50.966;6.968;2022-12-24T04:50:28;12.43;;;2.85;;
46439;SDS011;32138;50.966;6.968;2022-12-24T04:51:31;8.10;;;2.20;;
46439;SDS011;32138;50.966;6.968;2022-12-24T04:52:32;14.35;;;2.83;;
46439;SDS011;32138;50.966;6.968;2022-12-24T04:53:34;8.15;;;2.00;;
46439;SDS011;32138;50.966;6.968;2022-12-24T04:54:35;7.75;;;1.90;;
46439;SDS011;32138;50.966;6.968;2022-12-24T04:55:43;7.65;;;2.25;;
46439;SDS011;32138;50.966;6.968;2022-12-24T04:56:44;9.52;;;2.55;;
46439;SDS011;32138;50.966;6.968;2022-12-24T04:57:45;10.30;;;3.08;;
46439;SDS011;32138;50.966;6.968;2022-12-24T04:58:46;10.93;;;2.40;;
46439;SDS011;32138;50.966;6.968;2022-12-24T04:59:47;9.90;;;2.25;;
46439;SDS011;32138;50.966;6.968;2022-12-24T05:00:48;9.20;;;2.85;;
46439;SDS011;32138;50.966;6.968;2022-12-24T05:01:49;11.10;;;3.05;;
46439;SDS011;32138;50.966;6.968;2022-12-24T05:02:50;11.63;;;2.42;;
46439;SDS011;32138;50.966;6.968;2022-12-24T05:03:54;13.75;;;3.17;;
46439;SDS011;32138;50.966;6.968;2022-12-24T05:04:55;12.00;;;2.67;;
46439;SDS011;32138;50.966;6.968;2022-12-24T05:06:02;13.70;;;3.55;;
46439;SDS011;32138;50.966;6.968;2022-12-24T05:07:08;16.70;;;3.42;;
46439;SDS011;32138;50.966;6.968;2022-12-24T05:08:08;11.13;;;2.22;;
46439;SDS011;32138;50.966;6.968;2022-12-24T05:09:09;12.75;;;2.75;;
46439;SDS011;32138;50.966;6.968;2022-12-24T05:10:10;10.95;;;2.88;;
46439;SDS011;32138;50.966;6.968;2022-12-24T05:11:11;13.73;;;2.90;;
46439;SDS011;32138;50.966;6.968;2022-12-24T05:12:14;8.88;;;2.70;;
46439;SDS011;32138;50.966;6.968;2022-12-24T05:13:15;10.18;;;2.20;;
46439;SDS011;32138;50.966;6.968;2022-12-24T05:14:16;8.38;;;2.35;;
46439;SDS011;32138;50.966;6.968;2022-12-24T05:15:16;17.73;;;2.30;;
46439;SDS011;32138;50.966;6.968;2022-12-24T05:16:18;7.68;;;2.40;;
46439;SDS011;32138;50.966;6.968;2022-12-24T05:17:22;9.27;;;2.28;;
46439;SDS011;32138;50.966;6.968;2022-12-24T05:18:23;7.85;;;2.42;;
46439;SDS011;32138;50.966;6.968;2022-12-24T05:19:24;10.13;;;2.03;;
46439;SDS011;32138;50.966;6.968;2022-12-24T05:20:25;8.35;;;2.58;;
46439;SDS011;32138;50.966;6.968;2022-12-24T05:21:26;10.90;;;2.33;;
46439;SDS011;32138;50.966;6.968;2022-12-24T05:22:26;11.93;;;3.60;;
46439;SDS011;32138;50.966;6.968;2022-12-24T05:23:46;8.23;;;2.88;;
46439;SDS011;32138;50.966;6.968;2022-12-24T05:26:28;11.82;;;2.92;;
46439;SDS011;32138;50.966;6.968;2022-12-24T05:27:33;12.13;;;2.35;;
46439;SDS011;32138;50.966;6.968;2022-12-24T05:28:35;9.45;;;2.33;;
46439;SDS011;32138;50.966;6.968;2022-12-24T05:29:35;12.90;;;2.78;;
46439;SDS011;32138;50.966;6.968;2022-12-24T05:30:39;10.10;;;2.67;;
46439;SDS011;32138;50.966;6.968;2022-12-24T05:31:40;10.60;;;2.58;;
46439;SDS011;32138;50.966;6.968;2022-12-24T05:32:42;9.25;;;2.05;;
46439;SDS011;32138;50.966;6.968;2022-12-24T05:33:45;8.82;;;2.95;;
46439;SDS011;32138;50.966;6.968;2022-12-24T05:34:46;11.70;;;2.55;;
46439;SDS011;32138;50.966;6.968;2022-12-24T05:35:47;12.50;;;2.83;;
46439;SDS011;32138;50.966;6.968;2022-12-24T05:36:53;12.20;;;2.78;;
46439;SDS011;32138;50.966;6.968;2022-12-24T05:37:56;12.25;;;2.80;;
46439;SDS011;32138;50.966;6.968;2022-12-24T05:38:59;9.63;;;2.50;;
46439;SDS011;32138;50.966;6.968;2022-12-24T05:40:00;10.70;;;2.50;;
46439;SDS011;32138;50.966;6.968;2022-12-24T05:41:01;8.07;;;2.50;;
46439;SDS011;32138;50.966;6.968;2022-12-24T05:42:02;9.85;;;2.55;;
46439;SDS011;32138;50.966;6.968;2022-12-24T05:43:03;11.93;;;2.40;;
46439;SDS011;32138;50.966;6.968;2022-12-24T05:44:03;11.07;;;2.10;;
46439;SDS011;32138;50.966;6.968;2022-12-24T05:45:04;15.60;;;3.17;;
46439;SDS011;32138;50.966;6.968;2022-12-24T05:46:09;10.45;;;2.65;;
46439;SDS011;32138;50.966;6.968;2022-12-24T05:47:13;13.00;;;2.53;;
46439;SDS011;32138;50.966;6.968;2022-12-24T05:48:13;9.57;;;2.72;;
46439;SDS011;32138;50.966;6.968;2022-12-24T05:49:14;11.70;;;3.40;;
46439;SDS011;32138;50.966;6.968;2022-12-24T05:50:15;8.35;;;2.97;;
46439;SDS011;32138;50.966;6.968;2022-12-24T05:51:16;11.75;;;2.95;;
46439;SDS011;32138;50.966;6.968;2022-12-24T05:52:21;12.13;;;3.55;;
46439;SDS011;32138;50.966;6.968;2022-12-24T05:53:21;10.07;;;3.25;;
46439;SDS011;32138;50.966;6.968;2022-12-24T05:54:22;9.25;;;2.97;;
46439;SDS011;32138;50.966;6.968;2022-12-24T05:55:23;14.40;;;3.78;;
46439;SDS011;32138;50.966;6.968;2022-12-24T05:56:25;12.48;;;2.78;;
46439;SDS011;32138;50.966;6.968;2022-12-24T05:57:26;13.65;;;3.35;;
46439;SDS011;32138;50.966;6.968;2022-12-24T05:58:26;13.68;;;3.25;;
46439;SDS011;32138;50.966;6.968;2022-12-24T05:59:27;11.73;;;3.05;;
46439;SDS011;32138;50.966;6.968;2022-12-24T06:00:30;15.40;;;4.15;;
46439;SDS011;32138;50.966;6.968;2022-12-24T06:01:31;10.05;;;3.03;;
46439;SDS011;32138;50.966;6.968;2022-12-24T06:02:32;18.67;;;3.58;;
46439;SDS011;32138;50.966;6.968;2022-12-24T06:03:33;14.38;;;4.35;;
46439;SDS011;32138;50.966;6.968;2022-12-24T06:04:34;12.80;;;3.35;;
46439;SDS011;32138;50.966;6.968;2022-12-24T06:05:37;16.35;;;3.15;;
46439;SDS011;32138;50.966;6.968;2022-12-24T06:06:40;14.80;;;3.15;;
46439;SDS011;32138;50.966;6.968;2022-12-24T06:07:41;12.43;;;3.30;;
46439;SDS011;32138;50.966;6.968;2022-12-24T06:08:41;13.88;;;3.13;;
46439;SDS011;32138;50.966;6.968;2022-12-24T06:09:42;14.20;;;3.55;;
46439;SDS011;32138;50.966;6.968;2022-12-24T06:10:43;12.48;;;3.42;;
46439;SDS011;32138;50.966;6.968;2022-12-24T06:11:44;15.65;;;3.50;;
46439;SDS011;32138;50.966;6.968;2022-12-24T06:12:44;19.13;;;4.55;;
46439;SDS011;32138;50.966;6.968;2022-12-24T06:13:45;16.95;;;4.40;;
46439;SDS011;32138;50.966;6.968;2022-12-24T06:14:46;15.02;;;4.22;;
46439;SDS011;32138;50.966;6.968;2022-12-24T06:15:47;22.85;;;4.57;;
46439;SDS011;32138;50.966;6.968;2022-12-24T06:16:47;13.57;;;3.65;;
46439;SDS011;32138;50.966;6.968;2022-12-24T06:17:48;16.80;;;4.40;;
46439;SDS011;32138;50.966;6.968;2022-12-24T06:18:49;17.33;;;3.65;;
46439;SDS011;32138;50.966;6.968;2022-12-24T06:19:50;14.05;;;3.70;;
46439;SDS011;32138;50.966;6.968;2022-12-24T06:20:52;19.38;;;4.55;;
46439;SDS011;32138;50.966;6.968;2022-12-24T06:21:53;15.50;;;3.63;;
46439;SDS011;32138;50.966;6.968;2022-12-24T06:22:54;12.20;;;4.03;;
46439;SDS011;32138;50.966;6.968;2022-12-24T06:23:55;16.35;;;5.38;;
46439;SDS011;32138;50.966;6.968;2022-12-24T06:24:55;18.13;;;5.13;;
46439;SDS011;32138;50.966;6.968;2022-12-24T06:25:57;18.42;;;6.03;;
46439;SDS011;32138;50.966;6.968;2022-12-24T06:27:02;15.88;;;5.22;;
46439;SDS011;32138;50.966;6.968;2022-12-24T06:28:02;20.48;;;4.18;;
46439;SDS011;32138;50.966;6.968;2022-12-24T06:29:03;18.95;;;5.25;;
46439;SDS011;32138;50.966;6.968;2022-12-24T06:30:05;14.68;;;4.32;;
46439;SDS011;32138;50.966;6.968;2022-12-24T06:31:08;14.73;;;4.25;;
46439;SDS011;32138;50.966;6.968;2022-12-24T06:32:12;18.73;;;4.95;;
46439;SDS011;32138;50.966;6.968;2022-12-24T06:33:13;19.45;;;4.82;;
46439;SDS011;32138;50.966;6.968;2022-12-24T06:34:17;15.48;;;5.03;;
46439;SDS011;32138;50.966;6.968;2022-12-24T06:35:18;16.50;;;4.63;;
46439;SDS011;32138;50.966;6.968;2022-12-24T06:36:24;13.73;;;3.63;;
46439;SDS011;32138;50.966;6.968;2022-12-24T06:37:25;19.40;;;4.43;;
46439;SDS011;32138;50.966;6.968;2022-12-24T06:38:28;16.30;;;4.95;;
46439;SDS011;32138;50.966;6.968;2022-12-24T06:39:32;16.75;;;4.35;;
46439;SDS011;32138;50.966;6.968;2022-12-24T06:40:32;18.73;;;5.10;;
46439;SDS011;32138;50.966;6.968;2022-12-24T06:41:33;17.40;;;4.35;;